Slayton, MN

10:34 PM CDT on September 21, 2017 (GMT -0500)
Slayton

Weather History for KDVP - January, 2013

Change the Weather History Date:

Saturday, January 12, 2013

  Actual Average (KOTG) Record (KOTG)
Temperature  
Mean Temperature 11 °F -  
Max Temperature 21 °F 21 °F 44 °F (1987)
Min Temperature 1 °F 6 °F -18 °F (1974)
Degree Days  
Heating Degree Days 54    
Moisture  
Dew Point 3 °F    
Average Humidity 78    
Maximum Humidity 97    
Minimum Humidity 67    
Precipitation  
Precipitation 0.00 in - - ()
Sea Level Pressure  
Sea Level Pressure 29.89 in    
Wind  
Wind Speed 22 mph (WNW)    
Max Wind Speed 31 mph    
Max Gust Speed 38 mph    
Visibility 9 miles    
Events Snow    
Averages and records for this station are not official NWS values.
T = Trace of Precipitation, MM = Missing Value Source: NWS Daily Summary

Daily Weather History Graph

Daily Weather History Graph

Search for Another Location

Airport or City:

Trip Planner

Search our weather history database for the weather conditions in past years. The results will help you decide how hot, cold, wet, or windy it might be!

Date:

Astronomy

Jan. 12, 2013 Rise Set
Actual Time 7:55 AM CST 5:07 PM CST
Civil Twilight 7:23 AM CST 5:39 PM CST
Nautical Twilight 6:47 AM CST 6:15 PM CST
Astronomical Twilight 6:13 AM CST 6:50 PM CST
Moon 8:11 AM CST (1/12) 6:42 PM CST (1/12)
Length of Visible Light 10h 16m
Length of Day
9h 11m
New Moon, 1% of the Moon is Illuminated
Jan 12
New Moon
Jan 18
First Quarter
Jan 26
Full
Feb 3
Last Quarter
Feb 10
New

Hourly Weather History & Observations

Time (CST) Temp. Windchill Dew Point Humidity Pressure Visibility Wind Dir Wind Speed Gust Speed Precip Events Conditions
12:14 AM 21.9 °F 5.5 °F 21.2 °F 97% 29.50 in 7.0 mi West 24.2 mph 32.2 mph N/A   Overcast
12:35 AM 21.0 °F 4.3 °F 19.8 °F 95% 29.53 in 5.0 mi West 24.2 mph 28.8 mph N/A Snow Light Snow
12:55 AM 19.2 °F 2.2 °F 17.1 °F 91% 29.54 in 7.0 mi West 23.0 mph 31.1 mph N/A Snow Light Snow
1:35 AM 17.2 °F -1.1 °F 14.4 °F 88% 29.57 in 7.0 mi West 25.3 mph 33.4 mph N/A Snow Light Snow
1:55 AM 16.5 °F -2.8 °F 12.9 °F 86% 29.59 in 10.0 mi West 27.6 mph 32.2 mph N/A   Overcast
2:14 AM 15.6 °F -2.9 °F 12.6 °F 88% 29.61 in 5.0 mi West 24.2 mph 31.1 mph N/A Snow Light Snow
2:35 AM 14.7 °F -4.9 °F 11.3 °F 86% 29.62 in 7.0 mi West 26.5 mph 34.5 mph N/A Snow Light Snow
2:54 AM 14.0 °F -7.1 °F 10.0 °F 84% 29.64 in 7.0 mi West 31.1 mph 34.5 mph N/A   Overcast
3:15 AM 13.3 °F -6.8 °F 9.3 °F 84% 29.66 in 10.0 mi West 26.5 mph 36.8 mph N/A   Overcast
3:35 AM 12.9 °F -7.6 °F 8.6 °F 83% 29.67 in 10.0 mi West 27.6 mph 33.4 mph N/A   Overcast
3:55 AM 12.4 °F -6.9 °F 7.7 °F 82% 29.69 in 10.0 mi West 23.0 mph 38.0 mph N/A   Overcast
4:15 AM 11.3 °F -9.4 °F 6.4 °F 81% 29.70 in 10.0 mi West 26.5 mph 35.7 mph N/A   Mostly Cloudy
4:35 AM 10.4 °F -11.4 °F 5.9 °F 82% 29.71 in 7.0 mi West 28.8 mph 38.0 mph N/A   Mostly Cloudy
4:55 AM 9.9 °F -12.1 °F 4.6 °F 79% 29.72 in 10.0 mi West 28.8 mph 38.0 mph N/A   Scattered Clouds
5:15 AM 9.3 °F -11.3 °F 4.1 °F 79% 29.74 in 10.0 mi West 24.2 mph 34.5 mph N/A   Scattered Clouds
5:35 AM 9.0 °F -12.2 °F 3.4 °F 78% 29.75 in 10.0 mi West 25.3 mph 33.4 mph N/A   Scattered Clouds
5:55 AM 8.8 °F -10.8 °F 3.9 °F 81% 29.76 in 10.0 mi West 20.7 mph 24.2 mph N/A   Clear
6:15 AM 8.8 °F -11.6 °F 3.4 °F 79% 29.77 in 10.0 mi West 23.0 mph 33.4 mph N/A   Scattered Clouds
6:35 AM 9.0 °F -12.2 °F 4.1 °F 81% 29.79 in 10.0 mi West 25.3 mph 31.1 mph N/A   Scattered Clouds
6:55 AM 8.8 °F -12.8 °F 3.2 °F 78% 29.80 in 7.0 mi West 26.5 mph - N/A   Mostly Cloudy
7:15 AM 8.6 °F -12.3 °F 4.1 °F 82% 29.82 in 7.0 mi West 24.2 mph 28.8 mph N/A   Scattered Clouds
7:35 AM 8.1 °F -13.0 °F 1.8 °F 75% 29.83 in 10.0 mi West 24.2 mph 33.4 mph N/A   Scattered Clouds
7:55 AM 7.5 °F -12.9 °F 1.4 °F 76% 29.85 in 10.0 mi West 21.9 mph 31.1 mph N/A   Clear
8:15 AM 7.3 °F -13.5 °F 2.1 °F 79% 29.86 in 10.0 mi West 23.0 mph 28.8 mph N/A   Clear
8:34 AM 7.0 °F -14.5 °F 0.9 °F 76% 29.87 in 7.0 mi West 24.2 mph - N/A   Scattered Clouds
8:55 AM 7.2 °F -13.8 °F 0.3 °F 74% 29.87 in 10.0 mi West 23.0 mph 28.8 mph N/A   Clear
9:14 AM 7.2 °F -13.3 °F 0.5 °F 74% 29.88 in 10.0 mi West 21.9 mph - N/A   Clear
9:35 AM 7.3 °F -12.6 °F 0.3 °F 73% 29.89 in 10.0 mi West 20.7 mph 27.6 mph N/A   Clear
9:55 AM 7.7 °F -12.6 °F 0.9 °F 74% 29.92 in 10.0 mi West 21.9 mph 25.3 mph N/A   Clear
10:17 AM 8.1 °F -13.0 °F 0.5 °F 71% 29.92 in 10.0 mi West 24.2 mph 29.9 mph N/A   Clear
10:35 AM 8.1 °F -11.7 °F 0.9 °F 72% 29.93 in 10.0 mi West 20.7 mph - N/A   Clear
10:55 AM 8.6 °F -10.0 °F 1.6 °F 73% 29.94 in 10.0 mi West 18.4 mph 25.3 mph N/A   Scattered Clouds
11:15 AM 8.8 °F -11.6 °F 0.7 °F 70% 29.95 in 10.0 mi West 23.0 mph 28.8 mph N/A   Scattered Clouds
11:35 AM 8.6 °F -11.9 °F 1.4 °F 73% 29.94 in 10.0 mi West 23.0 mph 31.1 mph N/A   Scattered Clouds
11:55 AM 9.1 °F -9.8 °F 2.1 °F 73% 29.94 in 10.0 mi West 19.6 mph 28.8 mph N/A   Mostly Cloudy
12:15 PM 9.5 °F -10.3 °F 2.3 °F 73% 29.94 in 10.0 mi West 21.9 mph 27.6 mph N/A   Mostly Cloudy
12:35 PM 9.5 °F -11.1 °F 2.7 °F 74% 29.95 in 10.0 mi WNW 24.2 mph - N/A   Mostly Cloudy
12:55 PM 9.1 °F -10.7 °F 1.4 °F 71% 29.95 in 10.0 mi WNW 21.9 mph 26.5 mph N/A   Mostly Cloudy
1:15 PM 9.3 °F -10.0 °F 1.2 °F 70% 29.96 in 10.0 mi West 20.7 mph - N/A   Mostly Cloudy
1:35 PM 10.0 °F -9.1 °F 2.1 °F 70% 29.96 in 10.0 mi West 20.7 mph - N/A   Overcast
1:55 PM 10.0 °F -8.1 °F 2.5 °F 72% 29.96 in 10.0 mi West 18.4 mph - N/A   Mostly Cloudy
2:15 PM 9.9 °F -7.9 °F 1.4 °F 69% 29.97 in 7.0 mi WNW 17.3 mph 23.0 mph N/A   Mostly Cloudy
2:35 PM 10.2 °F -7.9 °F 1.9 °F 69% 29.97 in 7.0 mi WNW 18.4 mph 23.0 mph N/A   Scattered Clouds
2:55 PM 10.0 °F -7.6 °F 2.3 °F 71% 29.97 in 5.0 mi West 17.3 mph 21.9 mph N/A   Haze
3:15 PM 8.8 °F -9.3 °F 2.3 °F 75% 29.97 in 7.0 mi WNW 17.3 mph 21.9 mph N/A   Mostly Cloudy
3:35 PM 9.9 °F -7.9 °F 2.8 °F 73% 29.95 in 7.0 mi NW 17.3 mph - N/A   Scattered Clouds
3:55 PM 8.8 °F -8.1 °F -0.0 °F 67% 30.00 in 4.0 mi West 15.0 mph - N/A   Haze
4:14 PM 8.6 °F -8.9 °F 0.5 °F 70% 29.99 in 10.0 mi WNW 16.1 mph 20.7 mph N/A   Mostly Cloudy
4:35 PM 8.6 °F -8.9 °F 1.9 °F 74% 30.00 in 7.0 mi WNW 16.1 mph - N/A   Overcast
4:54 PM 7.7 °F -10.7 °F 0.7 °F 73% 30.02 in 10.0 mi WNW 17.3 mph - N/A   Mostly Cloudy
5:15 PM 7.5 °F -9.7 °F 1.0 °F 75% 30.02 in 10.0 mi West 15.0 mph - N/A   Mostly Cloudy
5:35 PM 7.3 °F -10.0 °F 1.4 °F 77% 30.03 in 10.0 mi WNW 15.0 mph - N/A   Overcast
5:55 PM 6.8 °F -9.3 °F 0.3 °F 75% 30.02 in 10.0 mi WNW 12.7 mph - N/A   Overcast
6:15 PM 6.4 °F -9.8 °F 0.9 °F 78% 30.03 in 10.0 mi WNW 12.7 mph - N/A   Mostly Cloudy
6:35 PM 6.1 °F -9.5 °F 0.3 °F 77% 30.02 in 10.0 mi WNW 11.5 mph - N/A   Clear
7:15 PM 5.9 °F -8.9 °F 0.9 °F 80% 30.05 in 10.0 mi WNW 10.4 mph - N/A   Clear
7:35 PM 6.4 °F -9.0 °F 1.8 °F 81% 30.04 in 7.0 mi WNW 11.5 mph - N/A   Mostly Cloudy
7:55 PM 6.4 °F -11.1 °F 1.4 °F 80% 30.04 in 7.0 mi NW 15.0 mph - N/A   Overcast
8:15 PM 5.0 °F -11.6 °F -0.6 °F 78% 30.05 in 10.0 mi NW 12.7 mph - N/A   Scattered Clouds
8:35 PM 4.8 °F -8.3 °F -0.9 °F 77% 30.05 in 10.0 mi NW 8.1 mph - N/A   Clear
8:55 PM 4.5 °F -9.8 °F -0.8 °F 79% 30.05 in 10.0 mi NW 9.2 mph - N/A   Clear
9:15 PM 4.5 °F -11.5 °F -0.6 °F 80% 30.06 in 10.0 mi NW 11.5 mph - N/A   Clear
9:35 PM 3.7 °F -14.6 °F -1.7 °F 78% 30.06 in 10.0 mi NW 15.0 mph - N/A   Clear
9:55 PM 3.4 °F -15.0 °F -1.8 °F 79% 30.05 in 10.0 mi WNW 15.0 mph - N/A   Clear
10:15 PM 3.2 °F -14.6 °F -2.0 °F 79% 30.07 in 10.0 mi NW 13.8 mph - N/A   Clear
10:35 PM 2.8 °F -15.0 °F -2.2 °F 79% 30.06 in 10.0 mi WNW 13.8 mph - N/A   Clear
10:55 PM 2.7 °F -15.3 °F -2.2 °F 80% 30.06 in 10.0 mi NW 13.8 mph - N/A   Clear
11:15 PM 2.3 °F -13.4 °F -2.6 °F 80% 30.07 in 10.0 mi NW 10.4 mph - N/A   Clear
11:35 PM 1.9 °F -16.2 °F -3.1 °F 79% 30.05 in 10.0 mi NW 13.8 mph - N/A   Clear
11:54 PM 1.9 °F -15.5 °F -3.1 °F 79% 30.05 in 10.0 mi NW 12.7 mph - N/A   Clear